Time;durP1;ratioP1;P1;durP2;ratioP2;P2;SDS_P1;SDS_P2;PMS_P1;PMS_P2;Temp;Humidity;BMP_temperature;BMP_pressure;BME280_temperature;BME280_humidity;BME280_pressure;Samples;Min_cycle;Max_cycle;Signal;HPM_P1;HPM_P2
2022/02/14 00:02:17;;;;;;;;;;;;;;;3.26;69.27;98669.41;4908931;29;19923;-80
2022/02/14 00:04:42;;;;;;;;;;;;;;;3.27;69.24;98672.00;4906969;29;19933;-82
2022/02/14 00:07:08;;;;;;;;;;;;;;;3.19;69.00;98675.72;4922695;29;19924;-88
2022/02/14 00:09:33;;;;;;;;;;;;;;;3.17;69.11;98670.53;4904843;29;19937;-86
2022/02/14 00:11:58;;;;;;;;;;;;;;;3.23;69.11;98674.75;4921551;29;19975;-83
2022/02/14 00:14:24;;;;;;;;;;;;;;;3.21;69.01;98669.56;4925104;29;20533;-86
2022/02/14 00:16:49;;;;;;;;;;;;;;;3.27;69.04;98679.84;4922912;29;20013;-89
2022/02/14 00:19:15;;;;;;;;;;;;;;;3.19;69.22;98666.13;4902628;29;19927;-84
2022/02/14 00:21:40;;;;;;;;;;;;;;;3.18;69.05;98672.25;4919445;29;19930;-85
2022/02/14 00:24:09;;;;;;;;;;;;;;;3.23;68.98;98657.25;4901351;29;19969;-87
2022/02/14 00:26:35;;;;;;;;;;;;;;;3.23;68.89;98651.19;4918567;29;20473;-83
2022/02/14 00:29:00;;;;;;;;;;;;;;;3.28;68.77;98652.72;4921295;29;19923;-82
2022/02/14 00:31:25;;;;;;;;;;;;;;;3.30;68.67;98644.84;4918154;29;20014;-86
2022/02/14 00:33:50;;;;;;;;;;;;;;;3.31;68.69;98643.94;4904751;29;20447;-84
2022/02/14 00:36:16;;;;;;;;;;;;;;;3.36;68.67;98642.03;4905970;29;20571;-88
2022/02/14 00:38:41;;;;;;;;;;;;;;;3.32;68.82;98636.94;4925910;29;19923;-88
2022/02/14 00:41:06;;;;;;;;;;;;;;;3.26;68.74;98646.69;4902667;29;19927;-85
2022/02/14 00:43:32;;;;;;;;;;;;;;;3.27;68.87;98639.69;4922843;29;19938;-85
2022/02/14 00:45:59;;;;;;;;;;;;;;;3.33;68.58;98630.81;4904130;29;19941;-88
2022/02/14 00:48:25;;;;;;;;;;;;;;;3.37;68.73;98629.81;4902608;29;19927;-88
2022/02/14 00:50:50;;;;;;;;;;;;;;;3.43;69.25;98617.38;4905675;29;19929;-86
2022/02/14 00:53:15;;;;;;;;;;;;;;;3.70;71.10;98608.63;4922647;29;20478;-89
2022/02/14 00:55:41;;;;;;;;;;;;;;;3.86;73.60;98603.72;4922429;29;19923;-84
2022/02/14 00:58:06;;;;;;;;;;;;;;;3.97;75.75;98601.59;4906636;29;19931;-87
2022/02/14 01:00:32;;;;;;;;;;;;;;;4.06;77.45;98598.66;4924970;29;19923;-85
2022/02/14 01:02:57;;;;;;;;;;;;;;;4.05;78.99;98599.56;4920931;29;19934;-87
2022/02/14 01:05:22;;;;;;;;;;;;;;;3.96;80.35;98594.66;4906048;29;19929;-86
2022/02/14 01:07:48;;;;;;;;;;;;;;;3.92;81.67;98595.66;4905281;29;19923;-82
2022/02/14 01:10:14;;;;;;;;;;;;;;;3.89;82.91;98580.88;4922835;29;19923;-86
2022/02/14 01:12:40;;;;;;;;;;;;;;;3.89;84.08;98577.41;4905603;29;19930;-81
2022/02/14 01:15:06;;;;;;;;;;;;;;;3.83;85.38;98578.50;4906200;29;19922;-84
2022/02/14 01:17:33;;;;;;;;;;;;;;;3.81;86.48;98578.56;4905934;29;19926;-80
2022/02/14 01:19:59;;;;;;;;;;;;;;;3.88;87.41;98580.94;4923200;29;19927;-83
2022/02/14 01:22:24;;;;;;;;;;;;;;;3.86;88.43;98572.28;4904603;29;19994;-82
2022/02/14 01:24:49;;;;;;;;;;;;;;;3.92;89.92;98562.44;4928200;29;19927;-82
2022/02/14 01:27:14;;;;;;;;;;;;;;;4.05;92.26;98564.63;4904250;29;19931;-87
2022/02/14 01:29:40;;;;;;;;;;;;;;;4.31;94.99;98563.72;4917450;29;19927;-80
2022/02/14 01:32:05;;;;;;;;;;;;;;;4.47;97.39;98559.59;4920565;29;19930;-81
2022/02/14 01:34:30;;;;;;;;;;;;;;;4.56;99.42;98558.38;4921399;29;20002;-82
2022/02/14 01:36:56;;;;;;;;;;;;;;;4.65;100.00;98558.03;4919667;29;19923;-81
2022/02/14 01:39:21;;;;;;;;;;;;;;;4.69;100.00;98550.88;4905104;29;19966;-84
2022/02/14 01:41:46;;;;;;;;;;;;;;;4.77;100.00;98547.97;4904798;29;19934;-81
2022/02/14 01:44:30;;;;;;;;;;;;;;;4.85;100.00;98548.53;4905818;29;20397;-81
2022/02/14 01:46:55;;;;;;;;;;;;;;;4.91;100.00;98543.03;4905606;29;19934;-82
2022/02/14 01:49:21;;;;;;;;;;;;;;;4.91;100.00;98541.28;4921531;29;20076;-85
2022/02/14 01:51:46;;;;;;;;;;;;;;;5.05;100.00;98539.88;4922191;29;19923;-81
2022/02/14 01:54:11;;;;;;;;;;;;;;;5.14;100.00;98538.63;4922541;29;19927;-84
2022/02/14 01:56:36;;;;;;;;;;;;;;;5.17;100.00;98533.25;4921348;29;19923;-82
2022/02/14 01:59:02;;;;;;;;;;;;;;;5.23;100.00;98527.75;4924813;29;19931;-82
2022/02/14 02:01:27;;;;;;;;;;;;;;;5.26;100.00;98528.50;4921472;29;19923;-81
2022/02/14 02:03:52;;;;;;;;;;;;;;;5.27;100.00;98529.34;4922538;29;19989;-82
2022/02/14 02:06:18;;;;;;;;;;;;;;;5.21;100.00;98519.09;4906608;29;20565;-83
2022/02/14 02:08:43;;;;;;;;;;;;;;;5.23;100.00;98519.88;4922849;29;19929;-82
2022/02/14 02:13:52;;;;;;;;;;;;;;;5.33;100.00;98515.09;4923253;29;20001;-82
2022/02/14 02:16:18;;;;;;;;;;;;;;;5.28;100.00;98510.91;4917917;29;20490;-84
2022/02/14 02:18:43;;;;;;;;;;;;;;;5.30;100.00;98512.59;4904084;29;19952;-81
2022/02/14 02:21:09;;;;;;;;;;;;;;;5.44;100.00;98510.25;4904490;29;20274;-82
2022/02/14 02:23:38;;;;;;;;;;;;;;;5.36;100.00;98512.34;4903529;29;20013;-80
2022/02/14 02:26:03;;;;;;;;;;;;;;;5.43;100.00;98504.13;4909623;29;19934;-81
2022/02/14 02:28:29;;;;;;;;;;;;;;;5.47;100.00;98496.97;4921685;29;19923;-81
2022/02/14 02:30:54;;;;;;;;;;;;;;;5.45;100.00;98490.94;4902117;29;19927;-82
2022/02/14 02:33:19;;;;;;;;;;;;;;;5.42;100.00;98491.06;4923117;29;20492;-81
2022/02/14 02:35:44;;;;;;;;;;;;;;;5.52;100.00;98495.03;4906374;29;19931;-84
2022/02/14 02:38:10;;;;;;;;;;;;;;;5.46;100.00;98476.91;4905421;29;19983;-81
2022/02/14 02:40:36;;;;;;;;;;;;;;;5.60;100.00;98477.16;4902662;29;20014;-81
2022/02/14 02:43:01;;;;;;;;;;;;;;;5.67;100.00;98469.00;4908756;29;20264;-82
2022/02/14 02:45:26;;;;;;;;;;;;;;;5.59;100.00;98471.97;4903624;29;19922;-83
2022/02/14 02:47:54;;;;;;;;;;;;;;;5.66;100.00;98462.03;4904695;29;19920;-84
2022/02/14 02:50:19;;;;;;;;;;;;;;;5.64;100.00;98457.69;4905236;29;19962;-81
2022/02/14 02:52:45;;;;;;;;;;;;;;;5.76;100.00;98458.06;4919120;29;19977;-83
2022/02/14 02:55:10;;;;;;;;;;;;;;;5.70;100.00;98448.69;4905450;29;19918;-85
2022/02/14 02:57:36;;;;;;;;;;;;;;;5.77;100.00;98454.53;4904578;29;19927;-81
2022/02/14 03:00:02;;;;;;;;;;;;;;;5.83;100.00;98443.75;4906859;29;19993;-82
2022/02/14 03:02:27;;;;;;;;;;;;;;;5.73;100.00;98443.31;4909461;29;19931;-82
2022/02/14 03:04:52;;;;;;;;;;;;;;;5.84;100.00;98440.19;4921618;29;19934;-82
2022/02/14 03:07:17;;;;;;;;;;;;;;;5.88;100.00;98435.66;4925674;29;20030;-83
2022/02/14 03:09:43;;;;;;;;;;;;;;;5.87;100.00;98444.44;4908437;29;19922;-84
2022/02/14 03:12:09;;;;;;;;;;;;;;;5.96;100.00;98434.41;4924200;29;19945;-86
2022/02/14 03:14:38;;;;;;;;;;;;;;;5.83;100.00;98427.97;4907682;29;19923;-87
2022/02/14 03:17:04;;;;;;;;;;;;;;;5.92;100.00;98434.56;4908322;29;19919;-83
2022/02/14 03:19:29;;;;;;;;;;;;;;;5.90;100.00;98436.44;4925521;29;19918;-83
2022/02/14 03:21:55;;;;;;;;;;;;;;;5.94;100.00;98428.34;4907181;29;19942;-81
2022/02/14 03:24:20;;;;;;;;;;;;;;;5.96;100.00;98430.91;4925665;29;20426;-86
2022/02/14 03:26:45;;;;;;;;;;;;;;;6.01;100.00;98421.03;4929803;29;20017;-84
2022/02/14 03:29:13;;;;;;;;;;;;;;;5.97;100.00;98425.59;4924336;29;19969;-83
2022/02/14 03:31:38;;;;;;;;;;;;;;;5.99;100.00;98410.59;4923973;29;20362;-81
2022/02/14 03:34:03;;;;;;;;;;;;;;;6.09;100.00;98415.44;4925458;29;20006;-80
2022/02/14 04:24:36;;;;;;;;;;;;;;;1.41;93.04;98431.66;4934294;28;19927;-84
2022/02/14 04:27:01;;;;;;;;;;;;;;;1.32;93.03;98431.88;4923681;29;20365;-80
2022/02/14 04:29:27;;;;;;;;;;;;;;;1.34;93.11;98432.69;4943108;29;19923;-88
2022/02/14 04:31:52;;;;;;;;;;;;;;;1.74;95.49;98418.53;4942696;29;19970;-81
2022/02/14 04:34:20;;;;;;;;;;;;;;;2.15;98.12;98419.06;4940261;29;20287;-84
2022/02/14 04:36:46;;;;;;;;;;;;;;;2.35;100.00;98423.69;4941627;29;19922;-84
2022/02/14 04:39:11;;;;;;;;;;;;;;;2.56;100.00;98413.47;4923255;29;20290;-84
2022/02/14 04:41:37;;;;;;;;;;;;;;;2.55;100.00;98420.41;4924419;29;19988;-82
2022/02/14 04:44:02;;;;;;;;;;;;;;;2.69;100.00;98425.22;4940132;29;19922;-82
2022/02/14 04:46:27;;;;;;;;;;;;;;;2.72;100.00;98412.88;4923571;29;19926;-82
2022/02/14 04:48:53;;;;;;;;;;;;;;;2.73;100.00;98417.22;4941016;29;20135;-82
2022/02/14 04:51:18;;;;;;;;;;;;;;;2.73;100.00;98421.59;4940706;29;19930;-81
2022/02/14 04:53:43;;;;;;;;;;;;;;;2.77;100.00;98414.50;4940732;29;19923;-81
2022/02/14 04:56:09;;;;;;;;;;;;;;;2.74;100.00;98412.84;4942158;29;19918;-81
2022/02/14 04:58:34;;;;;;;;;;;;;;;2.94;100.00;98408.72;4941584;29;19934;-81
2022/02/14 05:00:59;;;;;;;;;;;;;;;2.96;100.00;98412.97;4940997;29;19919;-80
2022/02/14 05:03:24;;;;;;;;;;;;;;;3.16;100.00;98414.06;4941056;29;19923;-80
2022/02/14 05:05:50;;;;;;;;;;;;;;;3.15;100.00;98407.13;4941313;29;20472;-81
2022/02/14 05:08:15;;;;;;;;;;;;;;;3.17;100.00;98405.31;4939929;29;19923;-80
2022/02/14 05:10:40;;;;;;;;;;;;;;;3.15;100.00;98412.38;4941089;29;19923;-80
2022/02/14 05:13:05;;;;;;;;;;;;;;;3.15;100.00;98412.38;4940963;29;19925;-80
2022/02/14 05:15:31;;;;;;;;;;;;;;;3.20;100.00;98400.81;4923953;29;19954;-80
2022/02/14 05:17:56;;;;;;;;;;;;;;;3.19;100.00;98399.13;4941825;29;19919;-80
2022/02/14 05:20:21;;;;;;;;;;;;;;;3.20;100.00;98402.59;4923926;29;20009;-80
2022/02/14 05:22:46;;;;;;;;;;;;;;;3.20;100.00;98399.97;4938912;29;19926;-80
2022/02/14 05:25:12;;;;;;;;;;;;;;;3.17;100.00;98406.16;4941228;29;20024;-80
2022/02/14 05:27:37;;;;;;;;;;;;;;;3.20;100.00;98407.81;4941134;29;19966;-80
2022/02/14 05:30:03;;;;;;;;;;;;;;;3.20;100.00;98413.06;4940533;29;19926;-80
2022/02/14 05:32:28;;;;;;;;;;;;;;;3.15;100.00;98418.44;4921751;29;19979;-80
2022/02/14 05:34:53;;;;;;;;;;;;;;;3.11;100.00;98415.97;4940780;29;19927;-84
2022/02/14 05:37:19;;;;;;;;;;;;;;;3.13;100.00;98414.16;4937734;29;19922;-79
2022/02/14 05:39:45;;;;;;;;;;;;;;;3.11;100.00;98408.13;4939257;29;19919;-80
2022/02/14 08:58:46;;;;;;;;;;;;;;;2.81;82.30;98439.66;4932891;28;19941;-79
2022/02/14 09:01:12;;;;;;;;;;;;;;;2.97;83.57;98434.75;4935613;28;19930;-80
2022/02/14 09:03:39;;;;;;;;;;;;;;;2.87;83.76;98432.47;4919473;29;19926;-83
2022/02/14 09:06:04;;;;;;;;;;;;;;;2.89;83.79;98424.56;4921037;29;19985;-82
2022/02/14 09:08:30;;;;;;;;;;;;;;;2.92;84.12;98429.72;4934615;29;20342;-84
2022/02/14 09:10:58;;;;;;;;;;;;;;;2.94;83.95;98425.28;4934258;28;19966;-81
2022/02/14 09:13:23;;;;;;;;;;;;;;;2.93;83.24;98428.78;4936747;28;19941;-82
2022/02/14 09:15:48;;;;;;;;;;;;;;;2.90;82.57;98416.69;4938577;29;19927;-81
2022/02/14 09:18:15;;;;;;;;;;;;;;;2.85;81.91;98412.50;4937091;29;19933;-80
2022/02/14 09:20:41;;;;;;;;;;;;;;;2.92;81.68;98416.63;4937447;28;19919;-79
2022/02/14 09:23:07;;;;;;;;;;;;;;;2.88;81.20;98420.25;4934704;29;19933;-82
2022/02/14 09:25:32;;;;;;;;;;;;;;;2.88;81.03;98417.63;4934494;28;20321;-81
2022/02/14 09:27:57;;;;;;;;;;;;;;;2.94;81.03;98408.72;4918312;29;19922;-78
2022/02/14 09:30:23;;;;;;;;;;;;;;;2.97;80.52;98416.44;4936811;29;20305;-82
2022/02/14 09:32:48;;;;;;;;;;;;;;;2.93;80.25;98418.31;4935109;28;19923;-80
2022/02/14 09:35:26;;;;;;;;;;;;;;;2.92;80.25;98427.09;4937618;29;19926;-79
2022/02/14 09:37:51;;;;;;;;;;;;;;;2.93;80.23;98426.16;4936672;28;19923;-79
2022/02/14 09:40:16;;;;;;;;;;;;;;;2.97;80.34;98424.28;4935266;28;20458;-80
2022/02/14 09:42:42;;;;;;;;;;;;;;;3.01;80.08;98416.28;4918163;29;19923;-83
2022/02/14 09:45:08;;;;;;;;;;;;;;;3.01;79.95;98425.91;4919914;29;19923;-79
2022/02/14 09:47:33;;;;;;;;;;;;;;;3.04;79.86;98426.66;4935889;28;19922;-80
2022/02/14 09:49:58;;;;;;;;;;;;;;;3.08;79.68;98424.81;4935756;28;19923;-79
2022/02/14 09:52:24;;;;;;;;;;;;;;;3.01;79.45;98429.38;4937209;29;20047;-80
2022/02/14 09:54:49;;;;;;;;;;;;;;;3.06;79.43;98434.47;4937058;28;20399;-80
2022/02/14 09:57:14;;;;;;;;;;;;;;;3.07;79.36;98430.94;4915469;29;19922;-85
2022/02/14 09:59:41;;;;;;;;;;;;;;;3.09;79.24;98434.34;4935734;28;19930;-79
2022/02/14 10:02:19;;;;;;;;;;;;;;;3.10;79.05;98430.84;4914648;29;20481;-83
2022/02/14 10:05:05;;;;;;;;;;;;;;;3.14;79.33;98436.81;4917997;29;20040;-79
2022/02/14 10:07:37;;;;;;;;;;;;;;;3.09;79.30;98442.22;4931936;29;19953;-83
2022/02/14 10:10:07;;;;;;;;;;;;;;;3.14;79.28;98436.81;4915508;29;20384;-80
2022/02/14 10:12:40;;;;;;;;;;;;;;;3.17;79.22;98444.56;4932283;28;19930;-83
2022/02/14 10:15:06;;;;;;;;;;;;;;;3.19;78.86;98430.53;4917173;29;19931;-80
2022/02/14 10:17:37;;;;;;;;;;;;;;;3.23;78.70;98439.97;4930720;29;19923;-79
2022/02/14 10:20:03;;;;;;;;;;;;;;;3.22;78.43;98440.03;4913358;29;19923;-80
2022/02/14 10:22:29;;;;;;;;;;;;;;;3.26;78.36;98441.63;4914476;29;19934;-79
2022/02/14 10:24:54;;;;;;;;;;;;;;;3.27;77.97;98445.94;4932436;28;19922;-79
2022/02/14 10:27:30;;;;;;;;;;;;;;;3.28;77.77;98450.28;4933037;28;19926;-81
2022/02/14 10:30:05;;;;;;;;;;;;;;;3.25;77.73;98453.00;4914539;28;19938;-81
2022/02/14 10:32:30;;;;;;;;;;;;;;;3.30;77.74;98458.09;4933860;29;19923;-78
2022/02/14 10:34:55;;;;;;;;;;;;;;;3.30;77.58;98458.09;4935218;28;20025;-78
2022/02/14 10:37:36;;;;;;;;;;;;;;;3.33;77.46;98469.31;4916724;29;20017;-79
2022/02/14 10:40:02;;;;;;;;;;;;;;;3.33;77.39;98471.91;4931689;29;20480;-79
2022/02/14 10:42:33;;;;;;;;;;;;;;;3.35;77.47;98482.34;4934674;29;19945;-80
2022/02/14 10:45:10;;;;;;;;;;;;;;;3.35;77.68;98493.69;4934463;29;19998;-80
2022/02/14 10:47:36;;;;;;;;;;;;;;;3.36;77.80;98500.63;4936012;29;19931;-79
2022/02/14 10:50:06;;;;;;;;;;;;;;;3.36;77.80;98499.78;4916935;29;19927;-80
2022/02/14 10:52:38;;;;;;;;;;;;;;;3.38;77.69;98496.22;4934985;29;20004;-79
2022/02/14 10:55:11;;;;;;;;;;;;;;;3.41;77.58;98500.47;4932405;28;19941;-79
2022/02/14 10:57:39;;;;;;;;;;;;;;;3.47;77.57;98510.75;4932191;29;20033;-79
2022/02/14 11:00:11;;;;;;;;;;;;;;;3.47;77.50;98507.28;4918008;29;19948;-79
2022/02/14 11:02:38;;;;;;;;;;;;;;;3.50;77.51;98508.03;4936547;29;19927;-82
2022/02/14 11:05:04;;;;;;;;;;;;;;;3.49;77.47;98510.69;4936005;28;20424;-79
2022/02/14 11:07:30;;;;;;;;;;;;;;;3.48;77.35;98504.59;4918736;29;19914;-80
2022/02/14 11:09:56;;;;;;;;;;;;;;;3.52;77.48;98502.72;4933848;28;20381;-81
2022/02/14 11:12:23;;;;;;;;;;;;;;;3.54;77.33;98508.75;4934799;28;20017;-79
2022/02/14 11:14:54;;;;;;;;;;;;;;;3.56;77.13;98515.66;4936185;28;19930;-79
2022/02/14 11:17:21;;;;;;;;;;;;;;;3.56;76.83;98523.53;4935982;28;19962;-79
2022/02/14 11:19:48;;;;;;;;;;;;;;;3.56;76.77;98522.69;4916538;28;19977;-80
2022/02/14 11:22:15;;;;;;;;;;;;;;;3.57;77.01;98517.34;4921384;29;19923;-80
2022/02/14 11:24:41;;;;;;;;;;;;;;;3.62;76.85;98523.31;4937355;28;20452;-79
2022/02/14 11:27:10;;;;;;;;;;;;;;;3.63;76.95;98524.16;4919948;29;19926;-79
2022/02/14 11:29:38;;;;;;;;;;;;;;;3.65;77.21;98522.34;4936557;29;19930;-79
2022/02/14 11:32:22;;;;;;;;;;;;;;;3.69;77.34;98523.94;4921823;29;19927;-84
2022/02/14 11:34:56;;;;;;;;;;;;;;;3.68;77.27;98532.72;4927701;28;19923;-80
2022/02/14 11:37:21;;;;;;;;;;;;;;;3.74;77.23;98527.25;4921112;29;19923;-82
2022/02/14 11:39:46;;;;;;;;;;;;;;;3.76;77.48;98532.44;4936070;29;19945;-81
2022/02/14 11:42:12;;;;;;;;;;;;;;;3.79;77.36;98535.81;4917557;29;19931;-81
2022/02/14 11:44:37;;;;;;;;;;;;;;;3.80;77.16;98526.19;4937726;28;19950;-80
2022/02/14 11:47:03;;;;;;;;;;;;;;;3.77;77.02;98527.16;4939375;28;19953;-79
2022/02/14 11:49:45;;;;;;;;;;;;;;;3.78;76.92;98525.38;4936418;28;19923;-83
2022/02/14 11:52:28;;;;;;;;;;;;;;;3.80;77.12;98527.06;4938068;28;19954;-82
2022/02/14 11:54:54;;;;;;;;;;;;;;;3.80;76.96;98524.44;4937805;28;19981;-84
2022/02/14 11:57:29;;;;;;;;;;;;;;;3.84;76.92;98532.19;4913672;29;19929;-86
2022/02/14 12:00:09;;;;;;;;;;;;;;;3.89;76.72;98531.09;4900960;29;19923;-81
2022/02/14 12:02:34;;;;;;;;;;;;;;;3.86;76.71;98530.34;4913785;29;20118;-82
2022/02/14 12:05:00;;;;;;;;;;;;;;;3.91;76.57;98521.44;4901039;29;20382;-80
2022/02/14 12:07:36;;;;;;;;;;;;;;;3.95;76.66;98527.41;4915440;29;20373;-81
2022/02/14 12:10:21;;;;;;;;;;;;;;;3.97;76.59;98525.59;4904310;29;19994;-80
2022/02/14 12:12:46;;;;;;;;;;;;;;;3.97;76.48;98522.97;4906978;29;20416;-81
2022/02/14 12:15:17;;;;;;;;;;;;;;;3.99;76.39;98518.53;4900125;29;19950;-80
2022/02/14 12:20:37;;;;;;;;;;;;;;;4.04;76.66;98516.59;4916873;29;19934;-79
2022/02/14 12:23:03;;;;;;;;;;;;;;;4.04;76.37;98516.59;4915571;29;19931;-83
2022/02/14 12:25:29;;;;;;;;;;;;;;;4.06;76.19;98511.31;4898011;29;19938;-81
2022/02/14 12:28:01;;;;;;;;;;;;;;;4.09;76.11;98508.56;4914928;29;19934;-82
2022/02/14 12:30:26;;;;;;;;;;;;;;;4.12;76.47;98501.44;4927142;28;19931;-84
2022/02/14 12:32:58;;;;;;;;;;;;;;;4.13;76.47;98508.41;4927575;29;19978;-80
2022/02/14 12:35:29;;;;;;;;;;;;;;;4.12;76.79;98501.44;4903342;29;19929;-86
2022/02/14 12:37:54;;;;;;;;;;;;;;;4.13;76.74;98497.91;4916095;29;19926;-85
2022/02/14 12:40:20;;;;;;;;;;;;;;;4.13;76.72;98512.78;4900650;29;20019;-83
2022/02/14 12:42:45;;;;;;;;;;;;;;;4.18;76.72;98519.56;4901084;29;19931;-79
2022/02/14 12:45:15;;;;;;;;;;;;;;;4.16;76.66;98524.03;4899091;29;19927;-81
2022/02/14 12:47:41;;;;;;;;;;;;;;;4.21;76.81;98530.84;4899795;29;20511;-85
2022/02/14 12:50:10;;;;;;;;;;;;;;;4.30;77.32;98528.72;4917077;29;20417;-85
2022/02/14 12:52:35;;;;;;;;;;;;;;;4.48;78.39;98527.22;4915289;29;20527;-79
2022/02/14 12:55:01;;;;;;;;;;;;;;;4.61;79.81;98530.22;4914826;29;19947;-79
2022/02/14 12:57:33;;;;;;;;;;;;;;;4.64;81.30;98537.97;4919926;29;19926;-83
2022/02/14 12:59:58;;;;;;;;;;;;;;;4.68;82.83;98531.66;4935641;29;19922;-80
2022/02/14 13:02:23;;;;;;;;;;;;;;;4.67;83.72;98535.19;4918492;29;19925;-79
2022/02/14 13:04:48;;;;;;;;;;;;;;;4.61;84.67;98534.59;4918470;29;20021;-79
2022/02/14 13:07:14;;;;;;;;;;;;;;;4.58;85.32;98546.06;4914207;29;19953;-80
2022/02/14 13:09:39;;;;;;;;;;;;;;;4.50;85.86;98543.75;4915465;29;20001;-86
2022/02/14 13:12:04;;;;;;;;;;;;;;;4.42;86.72;98540.56;4917787;28;19930;-79
2022/02/14 13:14:29;;;;;;;;;;;;;;;4.30;87.04;98552.34;4922505;29;19919;-80
2022/02/14 13:16:55;;;;;;;;;;;;;;;4.19;87.65;98544.84;4933515;28;20396;-80
2022/02/14 13:19:21;;;;;;;;;;;;;;;4.15;88.60;98543.28;4914002;28;19927;-80
2022/02/14 13:21:46;;;;;;;;;;;;;;;4.19;90.20;98544.00;4918592;28;20009;-79
2022/02/14 13:24:19;;;;;;;;;;;;;;;4.30;92.15;98543.63;4916297;29;19927;-79
2022/02/14 13:26:44;;;;;;;;;;;;;;;4.55;95.12;98540.94;4899531;29;20038;-79
2022/02/14 13:29:09;;;;;;;;;;;;;;;4.73;98.19;98537.59;4916089;29;20010;-80
2022/02/14 13:31:35;;;;;;;;;;;;;;;4.91;100.00;98549.16;4894633;29;19970;-79
2022/02/14 13:34:02;;;;;;;;;;;;;;;4.97;100.00;98541.94;4896763;29;19923;-81
2022/02/14 13:36:27;;;;;;;;;;;;;;;5.03;100.00;98542.56;4899079;29;19919;-80
2022/02/14 13:38:54;;;;;;;;;;;;;;;5.13;100.00;98552.69;4915881;29;19926;-81
2022/02/14 13:41:28;;;;;;;;;;;;;;;5.20;100.00;98555.00;4896999;29;19978;-81
2022/02/14 13:43:54;;;;;;;;;;;;;;;5.26;100.00;98557.41;4914800;29;20397;-80
2022/02/14 13:46:29;;;;;;;;;;;;;;;5.24;100.00;98558.38;4915087;29;19958;-81
2022/02/14 13:48:54;;;;;;;;;;;;;;;5.34;100.00;98557.06;4916445;29;19958;-79
2022/02/14 13:51:19;;;;;;;;;;;;;;;5.39;100.00;98555.13;4916047;29;19958;-80
2022/02/14 13:53:52;;;;;;;;;;;;;;;5.39;100.00;98564.75;4928315;29;19926;-83
2022/02/14 13:56:19;;;;;;;;;;;;;;;5.41;100.00;98550.66;4913027;29;19939;-79
2022/02/14 13:58:46;;;;;;;;;;;;;;;5.42;100.00;98554.97;4930303;28;19931;-79
2022/02/14 14:01:25;;;;;;;;;;;;;;;5.48;100.00;98547.78;4917137;29;19982;-79
2022/02/14 14:03:54;;;;;;;;;;;;;;;5.56;100.00;98549.13;4917730;29;20627;-80
2022/02/14 14:06:20;;;;;;;;;;;;;;;5.58;100.00;98538.56;4918696;29;19978;-80
2022/02/14 14:08:46;;;;;;;;;;;;;;;5.56;100.00;98550.94;4895981;29;20060;-80
2022/02/14 14:11:23;;;;;;;;;;;;;;;5.67;100.00;98545.22;4929386;29;20005;-79
2022/02/14 14:13:53;;;;;;;;;;;;;;;5.63;100.00;98547.09;4898646;29;19919;-80
2022/02/14 14:16:19;;;;;;;;;;;;;;;5.73;100.00;98550.22;4897803;29;20438;-79
2022/02/14 14:18:44;;;;;;;;;;;;;;;5.72;100.00;98553.75;4896072;29;19926;-79
2022/02/14 14:21:12;;;;;;;;;;;;;;;5.76;100.00;98553.56;4897609;29;20667;-81
2022/02/14 14:23:37;;;;;;;;;;;;;;;5.79;100.00;98550.81;4927775;28;20039;-80
2022/02/14 14:26:05;;;;;;;;;;;;;;;5.59;100.00;98551.63;4896720;29;20601;-80
2022/02/14 14:28:32;;;;;;;;;;;;;;;4.71;100.00;98554.31;4896967;29;19923;-80
2022/02/14 14:30:57;;;;;;;;;;;;;;;4.38;100.00;98551.22;4914253;29;19923;-84
2022/02/14 14:33:22;;;;;;;;;;;;;;;4.21;100.00;98557.06;4896282;29;20435;-79
2022/02/14 14:35:47;;;;;;;;;;;;;;;4.12;100.00;98553.88;4914204;29;19927;-84
2022/02/14 14:38:13;;;;;;;;;;;;;;;4.06;100.00;98561.97;4897004;29;19923;-80
2022/02/14 14:40:38;;;;;;;;;;;;;;;4.07;100.00;98563.69;4896299;29;20463;-79
2022/02/14 14:43:03;;;;;;;;;;;;;;;4.06;99.72;98566.34;4917779;29;19981;-84
2022/02/14 14:45:29;;;;;;;;;;;;;;;3.90;98.84;98561.66;4926648;29;19962;-81
2022/02/14 14:47:54;;;;;;;;;;;;;;;3.91;98.24;98571.22;4915671;29;19934;-82
2022/02/14 14:50:19;;;;;;;;;;;;;;;3.88;97.68;98560.84;4916752;29;20393;-81
2022/02/14 14:52:44;;;;;;;;;;;;;;;3.84;97.38;98568.88;4911628;29;19939;-81
2022/02/14 14:55:10;;;;;;;;;;;;;;;3.96;97.41;98568.44;4897142;29;19935;-80
2022/02/14 14:57:35;;;;;;;;;;;;;;;3.98;96.46;98569.25;4918026;29;20287;-79
2022/02/14 15:00:01;;;;;;;;;;;;;;;3.89;96.41;98569.56;4902322;29;20371;-80
2022/02/14 15:02:26;;;;;;;;;;;;;;;3.73;95.58;98577.09;4902441;29;19926;-79
2022/02/14 15:04:55;;;;;;;;;;;;;;;3.77;95.59;98579.56;4917309;29;19923;-80
2022/02/14 15:07:21;;;;;;;;;;;;;;;3.67;95.23;98577.31;4901400;29;19930;-80
2022/02/14 15:09:46;;;;;;;;;;;;;;;3.71;94.94;98585.00;4900975;29;19923;-82
2022/02/14 15:12:12;;;;;;;;;;;;;;;3.63;94.71;98581.78;4901151;29;20495;-79
2022/02/14 15:14:39;;;;;;;;;;;;;;;3.55;94.43;98583.81;4929901;28;19923;-85
2022/02/14 15:17:05;;;;;;;;;;;;;;;3.51;94.29;98576.97;4915131;29;19933;-83
2022/02/14 15:19:30;;;;;;;;;;;;;;;3.52;93.66;98584.75;4919098;29;20017;-80
2022/02/14 15:21:55;;;;;;;;;;;;;;;3.65;93.28;98595.69;4918463;29;19927;-79
2022/02/14 15:24:20;;;;;;;;;;;;;;;3.76;92.36;98588.31;4921803;29;19937;-80
2022/02/14 15:26:46;;;;;;;;;;;;;;;3.75;91.51;98589.25;4903485;29;19970;-80
2022/02/14 15:29:13;;;;;;;;;;;;;;;3.55;91.56;98589.91;4900261;29;19949;-81
2022/02/14 15:31:38;;;;;;;;;;;;;;;3.50;91.26;98597.06;4927394;29;19970;-79
2022/02/14 15:34:04;;;;;;;;;;;;;;;3.46;91.21;98595.44;4902491;29;19927;-80
2022/02/14 15:36:31;;;;;;;;;;;;;;;3.50;90.89;98591.84;4917340;29;19930;-81
2022/02/14 15:38:56;;;;;;;;;;;;;;;3.39;90.71;98586.94;4918599;29;19931;-80
2022/02/14 15:41:22;;;;;;;;;;;;;;;3.49;90.76;98584.03;4914386;29;19934;-79
2022/02/14 15:43:49;;;;;;;;;;;;;;;3.35;90.65;98598.44;4917272;29;20484;-79
2022/02/14 15:46:14;;;;;;;;;;;;;;;3.41;90.78;98587.72;4899495;29;19931;-79
2022/02/14 15:48:39;;;;;;;;;;;;;;;3.49;90.56;98599.75;4915016;29;20033;-80
2022/02/14 15:51:06;;;;;;;;;;;;;;;3.42;89.78;98597.31;4913666;29;20350;-82
2022/02/14 15:53:33;;;;;;;;;;;;;;;3.30;89.87;98616.03;4896226;29;19996;-79
2022/02/14 15:55:58;;;;;;;;;;;;;;;3.34;89.98;98606.34;4895868;29;20304;-84
2022/02/14 15:58:24;;;;;;;;;;;;;;;3.29;90.04;98614.34;4915323;29;19938;-79
2022/02/14 16:00:49;;;;;;;;;;;;;;;3.28;89.93;98612.63;4899944;29;20553;-81
2022/02/14 16:03:16;;;;;;;;;;;;;;;3.24;89.84;98616.25;4898292;29;19927;-80
2022/02/14 16:05:42;;;;;;;;;;;;;;;3.20;90.04;98614.63;4900683;29;20015;-80
2022/02/14 16:08:07;;;;;;;;;;;;;;;3.22;90.07;98620.66;4920393;28;20029;-83
2022/02/14 16:10:32;;;;;;;;;;;;;;;3.20;89.95;98625.09;4894939;29;19935;-81
2022/02/14 16:12:57;;;;;;;;;;;;;;;3.20;89.67;98614.63;4910912;29;19943;-84
2022/02/14 16:15:23;;;;;;;;;;;;;;;3.14;89.56;98620.91;4899091;29;19933;-85
2022/02/14 16:17:48;;;;;;;;;;;;;;;3.31;89.42;98625.63;4926543;28;19966;-84
2022/02/14 16:20:14;;;;;;;;;;;;;;;3.33;88.89;98633.41;4897299;29;20581;-86
2022/02/14 16:22:47;;;;;;;;;;;;;;;3.37;88.53;98635.91;4899312;29;19923;-81
2022/02/14 16:25:15;;;;;;;;;;;;;;;3.22;88.72;98638.97;4902003;29;20558;-83
2022/02/14 16:27:42;;;;;;;;;;;;;;;3.24;88.66;98639.81;4899955;29;20314;-80
2022/02/14 16:30:10;;;;;;;;;;;;;;;3.14;88.71;98651.47;4920209;29;19923;-81
2022/02/14 16:32:36;;;;;;;;;;;;;;;3.11;88.80;98652.41;4902141;29;20746;-80
2022/02/14 16:35:04;;;;;;;;;;;;;;;3.09;88.92;98644.63;4917378;29;20303;-84
2022/02/14 16:37:30;;;;;;;;;;;;;;;3.13;88.70;98648.00;4918348;29;19923;-84
2022/02/14 16:39:56;;;;;;;;;;;;;;;3.04;88.66;98645.66;4919387;29;19922;-87
2022/02/14 16:42:22;;;;;;;;;;;;;;;3.07;88.47;98642.94;4895015;29;19971;-84
2022/02/14 16:44:47;;;;;;;;;;;;;;;3.24;88.12;98647.66;4917539;29;19923;-80
2022/02/14 16:47:13;;;;;;;;;;;;;;;3.15;87.71;98654.03;4900583;29;19924;-82
2022/02/14 16:52:23;;;;;;;;;;;;;;;3.01;87.92;98666.69;4916669;29;19986;-80
2022/02/14 16:54:49;;;;;;;;;;;;;;;3.07;87.76;98659.50;4930225;28;20564;-79
2022/02/14 16:57:14;;;;;;;;;;;;;;;3.02;87.93;98665.78;4917662;29;19962;-79
2022/02/14 16:59:39;;;;;;;;;;;;;;;3.11;87.56;98672.50;4897944;29;19931;-79
2022/02/14 17:02:04;;;;;;;;;;;;;;;3.20;87.64;98666.97;4900809;29;20061;-82
2022/02/14 17:04:30;;;;;;;;;;;;;;;3.00;87.39;98667.56;4896468;29;19931;-80